createdAt,value
2023-05-10T12:26:05.667Z,4.73
2023-05-10T12:31:16.373Z,4.73
2023-05-10T12:36:25.830Z,4.69
2023-05-10T12:41:33.659Z,4.69
2023-05-10T12:46:42.117Z,4.62
2023-05-10T12:51:51.907Z,4.62
2023-05-10T12:57:01.660Z,4.64
2023-05-10T13:02:11.413Z,4.64
2023-05-10T13:07:20.565Z,4.7
2023-05-10T13:12:29.700Z,4.7
2023-05-10T13:17:39.591Z,4.69
2023-05-10T13:22:47.916Z,4.69
2023-05-10T13:27:57.675Z,4.69
2023-05-10T13:33:07.115Z,4.69
2023-05-10T13:38:15.933Z,4.65
2023-05-10T13:43:25.649Z,4.65
2023-05-10T13:48:39.388Z,4.64
2023-05-10T13:53:43.255Z,4.64
2023-05-10T13:58:53.021Z,4.74
2023-05-10T14:04:02.961Z,4.74
2023-05-10T14:09:11.922Z,4.55
2023-05-10T14:14:20.402Z,4.55
2023-05-10T14:19:29.524Z,4.47
2023-05-10T14:24:37.954Z,4.47
2023-05-10T14:29:47.166Z,4.53
2023-05-10T14:34:56.211Z,4.42
2023-05-10T14:40:04.683Z,4.42
2023-05-10T14:45:13.799Z,4.44
2023-05-10T14:50:37.812Z,4.44
2023-05-10T14:55:30.340Z,4.43
2023-05-10T15:00:40.248Z,4.43
2023-05-10T15:05:47.112Z,4.37
2023-05-10T15:52:09.813Z,4.48
2023-05-10T15:57:18.957Z,4.46
2023-05-10T16:02:28.523Z,4.46
2023-05-10T16:07:35.889Z,4.47
2023-05-10T16:12:45.684Z,4.47
2023-05-10T16:17:55.433Z,4.51
2023-05-10T16:23:02.620Z,4.51
2023-05-10T16:28:11.758Z,4.52
2023-05-10T16:33:20.232Z,4.52
2023-05-10T16:38:28.703Z,4.54
2023-05-10T16:43:37.176Z,4.54
2023-05-10T16:48:46.062Z,4.59
2023-05-10T16:53:55.407Z,4.59
2023-05-10T16:59:05.927Z,4.6
2023-05-10T17:04:14.669Z,4.6
2023-05-10T17:09:24.057Z,4.58
2023-05-10T17:14:33.833Z,4.58
2023-05-10T17:19:42.926Z,4.68
2023-05-10T17:24:52.075Z,4.68
2023-05-10T17:30:01.833Z,4.65
2023-05-10T17:35:10.952Z,4.65
2023-05-10T17:40:20.108Z,4.74
2023-05-10T17:45:28.684Z,4.74
2023-05-10T17:50:37.013Z,4.82
2023-05-10T17:55:46.795Z,4.88
2023-05-10T18:00:56.009Z,4.88
2023-05-10T18:06:05.208Z,4.83
2023-05-10T18:11:14.163Z,4.83
2023-05-10T18:16:22.817Z,4.84
2023-05-10T18:21:32.382Z,4.84
2023-05-10T18:26:40.201Z,4.85
2023-05-10T18:31:49.330Z,4.85
2023-05-10T18:36:59.108Z,4.83
2023-05-10T18:42:08.839Z,4.83
2023-05-10T18:47:18.023Z,4.89
2023-05-10T19:33:39.025Z,4.84
2023-05-10T19:38:48.532Z,4.69
2023-05-10T19:43:58.344Z,4.69
2023-05-10T19:49:06.818Z,4.68
2023-05-10T19:54:15.897Z,4.68
2023-05-10T19:59:24.427Z,4.56
2023-05-10T20:04:34.132Z,4.56
2023-05-10T20:09:42.609Z,4.46
2023-05-10T20:14:53.006Z,4.46
2023-05-10T20:20:01.493Z,4.43
2023-05-10T20:25:09.958Z,4.43
2023-05-10T20:30:20.073Z,4.37
2023-05-10T20:35:26.938Z,4.37
2023-05-10T20:40:36.070Z,4.43
2023-05-10T20:45:45.855Z,4.43
2023-05-10T20:50:53.644Z,4.4
2023-05-10T20:56:02.796Z,4.4
2023-05-10T21:01:11.613Z,4.47
2023-05-10T21:06:20.014Z,4.47
2023-05-10T21:11:28.848Z,4.55
2023-05-10T21:16:39.307Z,4.59
2023-05-10T21:21:47.099Z,4.59
2023-05-10T21:26:55.616Z,4.56
2023-05-10T21:32:04.826Z,4.56
2023-05-10T21:37:13.828Z,4.62
2023-05-10T21:42:22.307Z,4.62
2023-05-10T21:47:32.514Z,4.63
2023-05-10T21:52:41.187Z,4.63
2023-05-10T21:57:50.960Z,4.88
2023-05-10T22:03:01.420Z,4.88
2023-05-10T22:08:10.467Z,4.85
2023-05-10T22:13:18.963Z,4.85
2023-05-10T22:18:27.621Z,4.8
2023-05-10T23:10:01.305Z,4.79
2023-05-10T23:15:10.942Z,4.79
2023-05-10T23:20:22.191Z,4.78
2023-05-10T23:25:29.179Z,4.78
2023-05-10T23:30:38.914Z,4.79
2023-05-10T23:35:46.778Z,4.79
2023-05-10T23:40:55.259Z,4.82
2023-05-10T23:46:04.071Z,4.82
2023-05-10T23:51:14.156Z,4.76
2023-05-10T23:56:23.893Z,4.76
